Portada
METAR-TAF:

METAR-TAF

Aeropuertos :

Aeropuerto Internacional de Auckland

Auckland, Nueva Zelanda

latitud: 37-01S, longitud: 174-48E, altitud: 7 m

Observación

El informe se hizo hace 25 minutos, a las 01:30 UTC
Viento 13 kt del oeste
Temperatura 26°C
Humedad 61%
Presión 1016 hPa
Visibilidad 10 km o más

METAR: NZAA 290130Z AUTO 26013KT 9999 NCD 26/18 Q1016 NOSIG

Hora: 14:55 (01:55 UTC)

Pronóstico

El informe se hizo hace 2 horas y 53 minutos, a las 23:02 UTC
Pronóstico válido del 29 a las 00 UTC al 01 a las 00 UTC
Viento 10 kt del oeste-suroeste
Visibilidad 10 km o más
Escasas nubes a una altura de 2000 ft
Nubes dispersas a una altura de 4000 ft
Temporalmente
del 29 a las 06 UTC al 29 a las 09 UTC
Cielo nuboso a una altura de 1200 ft
Evolucionando progresivamente
del 29 a las 08 UTC al 29 a las 10 UTC
Viento 5 kt del sur

TAF: NZAA 282302Z 2900/0100 24010KT 9999 FEW020 SCT040 TEMPO 2906/2909 BKN012 BECMG 2908/2910 18005KT

Observaciones y pronósticos meteorológicos de más de 4000 aeropuertos (mensajes METAR y TAF).

Los puntos amarillos y rojos representan las estaciones disponibles.

Ponga el ratón en el punto deseado para ver el nombre de la estación.

Haga clic para ver las observaciones y los pronósticos meteorológicos.

Para cambiar el mapa : haga clic en los botones verdes con una cruz de color negro para hacer un zoom, en el botón verde con un guión para alejar o en las flechas verdes para mapas adyacentes.


METAR-TAF: